createdAt,value
2018-11-07T00:00:21.262Z,11.20
2018-11-07T00:02:49.379Z,11.20
2018-11-07T00:05:17.425Z,11.10
2018-11-07T00:07:45.602Z,11.10
2018-11-07T00:10:13.647Z,11.10
2018-11-07T00:12:41.760Z,11.00
2018-11-07T00:15:10.881Z,11.00
2018-11-07T00:17:38.965Z,11.00
2018-11-07T00:20:07.896Z,10.90
2018-11-07T00:22:35.968Z,11.00
2018-11-07T00:25:04.358Z,10.90
2018-11-07T00:27:32.416Z,10.90
2018-11-07T00:30:00.484Z,10.90
2018-11-07T00:32:28.502Z,10.90
2018-11-07T00:34:56.588Z,10.80
2018-11-07T00:37:24.544Z,10.80
2018-11-07T00:39:52.603Z,10.80
2018-11-07T00:42:20.678Z,10.80
2018-11-07T00:44:48.705Z,10.80
2018-11-07T00:47:16.789Z,10.70
2018-11-07T00:49:44.879Z,10.80
2018-11-07T00:52:12.970Z,10.80
2018-11-07T00:54:41.143Z,10.80
2018-11-07T00:57:09.192Z,10.80
2018-11-07T00:59:37.275Z,10.80
2018-11-07T01:02:05.648Z,10.90
2018-11-07T01:04:33.733Z,10.90
2018-11-07T01:07:01.832Z,11.00
2018-11-07T01:09:29.933Z,11.00
2018-11-07T01:11:57.946Z,11.00
2018-11-07T01:14:26.015Z,11.00
2018-11-07T01:16:54.085Z,11.10
2018-11-07T01:19:22.149Z,11.10
2018-11-07T01:21:50.259Z,11.20
2018-11-07T01:24:18.300Z,11.20
2018-11-07T01:26:46.348Z,11.20
2018-11-07T01:29:14.495Z,11.20
2018-11-07T01:31:42.549Z,11.30
2018-11-07T01:34:10.590Z,11.30
2018-11-07T01:36:38.749Z,11.30
2018-11-07T01:39:07.556Z,11.30
2018-11-07T01:41:35.670Z,11.20
2018-11-07T01:44:03.819Z,11.20
2018-11-07T01:46:31.931Z,11.20
2018-11-07T01:48:59.989Z,11.10
2018-11-07T01:51:28.142Z,11.10
2018-11-07T01:53:56.225Z,11.00
2018-11-07T01:56:24.302Z,11.00
2018-11-07T01:58:52.360Z,11.00
2018-11-07T02:01:20.445Z,11.00
2018-11-07T02:03:48.502Z,11.00
2018-11-07T02:06:16.578Z,10.90
2018-11-07T02:08:44.644Z,10.90
2018-11-07T02:11:12.735Z,10.90
2018-11-07T02:13:40.869Z,10.90
2018-11-07T02:16:08.929Z,10.90
2018-11-07T02:18:37.003Z,10.80
2018-11-07T02:21:05.296Z,10.80
2018-11-07T02:23:33.353Z,10.80
2018-11-07T02:26:01.557Z,10.70
2018-11-07T02:28:29.635Z,10.70
2018-11-07T02:30:57.717Z,10.60
2018-11-07T02:33:25.751Z,10.60
2018-11-07T02:35:53.809Z,10.60
2018-11-07T02:38:21.864Z,10.50
2018-11-07T02:40:49.954Z,10.50
2018-11-07T02:43:17.985Z,10.50
2018-11-07T02:45:46.013Z,10.40
2018-11-07T02:48:14.082Z,10.40
2018-11-07T02:50:42.175Z,10.30
2018-11-07T02:53:10.325Z,10.30
2018-11-07T02:55:38.385Z,10.30
2018-11-07T02:58:06.476Z,10.20
2018-11-07T03:00:34.584Z,10.30
2018-11-07T03:03:02.648Z,10.20
2018-11-07T03:05:30.714Z,10.20
2018-11-07T03:07:58.813Z,10.30
2018-11-07T03:10:26.908Z,10.30
2018-11-07T03:12:54.932Z,10.30
2018-11-07T03:15:22.985Z,10.30
2018-11-07T03:17:51.019Z,10.30
2018-11-07T03:20:19.107Z,10.30
2018-11-07T03:22:47.113Z,10.30
2018-11-07T03:25:15.170Z,10.30
2018-11-07T03:27:43.239Z,10.30
2018-11-07T03:30:11.332Z,10.30
2018-11-07T03:32:39.588Z,10.30
2018-11-07T03:35:07.622Z,10.40
2018-11-07T03:37:35.781Z,10.30
2018-11-07T03:40:03.836Z,10.30
2018-11-07T03:42:32.047Z,10.40
2018-11-07T03:45:00.076Z,10.40
2018-11-07T03:47:28.136Z,10.40
2018-11-07T03:49:56.249Z,10.50
2018-11-07T03:52:24.384Z,10.50
2018-11-07T03:54:52.507Z,10.50
2018-11-07T03:57:20.555Z,10.50
2018-11-07T03:59:48.585Z,10.50
2018-11-07T04:02:16.606Z,10.50
2018-11-07T04:04:44.653Z,10.50
2018-11-07T04:07:12.733Z,10.50
2018-11-07T04:09:40.822Z,10.60
2018-11-07T04:12:08.916Z,10.60
2018-11-07T04:14:36.982Z,10.70
2018-11-07T04:17:05.023Z,10.70
2018-11-07T04:19:33.080Z,10.70
2018-11-07T04:22:01.148Z,10.70
2018-11-07T04:24:29.182Z,10.70
2018-11-07T04:26:57.262Z,10.70
2018-11-07T04:29:25.332Z,10.80
2018-11-07T04:31:53.358Z,10.80
2018-11-07T04:34:21.435Z,10.80
2018-11-07T04:36:49.514Z,10.70
2018-11-07T04:39:17.709Z,10.70
2018-11-07T04:41:45.676Z,10.70
2018-11-07T04:44:13.694Z,10.70
2018-11-07T04:46:41.781Z,10.70
2018-11-07T04:49:09.806Z,10.60
2018-11-07T04:51:37.881Z,10.60
2018-11-07T04:54:05.941Z,10.60
2018-11-07T04:56:34.026Z,10.60
2018-11-07T04:59:02.090Z,10.50
2018-11-07T05:01:30.171Z,10.50
2018-11-07T05:03:58.225Z,10.40
2018-11-07T05:06:26.384Z,10.40
2018-11-07T05:08:54.427Z,10.40
2018-11-07T05:11:22.527Z,10.30
2018-11-07T05:13:50.656Z,10.30
2018-11-07T05:16:18.697Z,10.20
2018-11-07T05:18:46.717Z,10.20
2018-11-07T05:21:14.826Z,10.10
2018-11-07T05:23:42.870Z,10.10
2018-11-07T05:28:38.654Z,9.90
2018-11-07T05:31:06.694Z,9.90
2018-11-07T05:33:34.748Z,9.80
2018-11-07T05:36:02.788Z,9.80
2018-11-07T05:38:30.852Z,9.80
2018-11-07T05:40:58.913Z,9.80
2018-11-07T05:43:26.967Z,9.80
2018-11-07T05:45:55.023Z,9.80
2018-11-07T05:48:23.087Z,9.80
2018-11-07T05:50:51.151Z,9.80
2018-11-07T05:53:19.311Z,9.80
2018-11-07T05:55:47.733Z,9.70
2018-11-07T05:58:15.771Z,9.80
2018-11-07T06:00:43.825Z,9.80
2018-11-07T06:03:11.885Z,9.80
2018-11-07T06:05:39.993Z,9.70
2018-11-07T06:08:08.038Z,9.70
2018-11-07T06:10:36.137Z,9.80
2018-11-07T06:13:04.261Z,9.80
2018-11-07T06:15:32.311Z,9.90
2018-11-07T06:18:00.394Z,9.90
2018-11-07T06:20:28.489Z,10.00
2018-11-07T06:22:56.563Z,9.90
2018-11-07T06:25:24.615Z,10.00
2018-11-07T06:27:52.632Z,10.00
2018-11-07T06:30:20.820Z,10.00
2018-11-07T06:32:48.869Z,10.00
2018-11-07T06:35:16.941Z,10.00
2018-11-07T06:37:45.025Z,10.00
2018-11-07T06:40:13.074Z,10.00
2018-11-07T06:42:41.167Z,10.00
2018-11-07T06:45:09.239Z,10.00
2018-11-07T06:47:37.333Z,10.00
2018-11-07T06:50:08.226Z,10.00
2018-11-07T06:52:36.302Z,10.00
2018-11-07T06:55:05.223Z,9.90
2018-11-07T06:57:33.241Z,9.90
2018-11-07T07:00:01.323Z,9.90
2018-11-07T07:02:29.335Z,9.90
2018-11-07T07:04:57.600Z,9.90
2018-11-07T07:07:25.666Z,9.90
2018-11-07T07:09:53.698Z,9.90
2018-11-07T07:12:21.733Z,9.90
2018-11-07T07:14:49.810Z,10.00
2018-11-07T07:17:17.912Z,10.00
2018-11-07T07:19:45.934Z,10.00
2018-11-07T07:22:13.991Z,10.00
2018-11-07T07:24:42.055Z,10.00
2018-11-07T07:27:10.126Z,10.10
2018-11-07T07:29:38.192Z,10.10
2018-11-07T07:32:06.258Z,10.20
2018-11-07T07:34:34.379Z,10.20
2018-11-07T07:37:02.422Z,10.30
2018-11-07T07:39:30.525Z,10.30
2018-11-07T07:41:58.745Z,10.40
2018-11-07T07:44:26.903Z,10.40
2018-11-07T07:46:54.958Z,10.50
2018-11-07T07:49:23.113Z,10.50
2018-11-07T07:51:51.144Z,10.50
2018-11-07T07:54:19.310Z,10.60
2018-11-07T07:56:47.390Z,10.70
2018-11-07T07:59:15.514Z,10.70
2018-11-07T08:01:43.601Z,10.80
2018-11-07T08:04:11.725Z,10.80
2018-11-07T08:06:39.758Z,10.90
2018-11-07T08:09:08.939Z,11.00
2018-11-07T08:11:37.097Z,11.10
2018-11-07T08:14:05.277Z,11.10
2018-11-07T08:16:33.312Z,11.20
2018-11-07T08:19:01.395Z,11.30
2018-11-07T08:21:29.506Z,11.40
2018-11-07T08:23:57.611Z,11.50
2018-11-07T08:26:25.698Z,11.60
2018-11-07T08:28:53.778Z,11.70
2018-11-07T08:31:21.880Z,11.70
2018-11-07T08:33:49.955Z,11.80
2018-11-07T08:36:18.049Z,11.90
2018-11-07T08:38:46.136Z,12.00
2018-11-07T08:41:14.211Z,12.00
2018-11-07T08:43:42.490Z,12.10
2018-11-07T08:46:10.696Z,12.10
2018-11-07T08:48:38.753Z,12.20
2018-11-07T08:51:06.858Z,12.30
2018-11-07T08:56:09.259Z,12.40
2018-11-07T08:58:37.574Z,12.50
2018-11-07T09:01:05.748Z,12.50
2018-11-07T09:03:34.024Z,12.60
2018-11-07T09:06:02.114Z,12.70
2018-11-07T09:08:30.188Z,12.70
2018-11-07T09:10:58.201Z,12.80
2018-11-07T09:13:26.221Z,12.90
2018-11-07T09:15:54.236Z,13.00
2018-11-07T09:18:22.354Z,13.10
2018-11-07T09:20:50.390Z,13.10
2018-11-07T09:23:18.433Z,13.20
2018-11-07T09:28:13.442Z,13.30
2018-11-07T09:30:41.601Z,13.50
2018-11-07T09:33:09.728Z,13.60
2018-11-07T09:35:37.782Z,13.60
2018-11-07T09:38:05.825Z,13.70
2018-11-07T09:40:33.958Z,13.70
2018-11-07T09:43:02.001Z,13.60
2018-11-07T09:45:30.042Z,13.60
2018-11-07T09:47:58.091Z,13.60
2018-11-07T09:50:26.124Z,13.60
2018-11-07T09:52:54.154Z,13.60
2018-11-07T09:55:22.190Z,13.70
2018-11-07T09:57:50.335Z,13.70
2018-11-07T10:00:18.390Z,13.70
2018-11-07T10:02:46.470Z,13.70
2018-11-07T10:05:14.595Z,13.70
2018-11-07T10:07:42.684Z,13.80
2018-11-07T10:10:11.862Z,13.90
2018-11-07T10:12:40.005Z,13.90
2018-11-07T10:15:08.620Z,14.00
2018-11-07T10:17:36.693Z,14.10
2018-11-07T10:20:13.449Z,14.20
2018-11-07T10:22:41.543Z,14.30
2018-11-07T10:25:09.631Z,14.40
2018-11-07T10:27:37.949Z,14.40
2018-11-07T10:30:07.840Z,14.50
2018-11-07T10:32:35.586Z,14.50
2018-11-07T10:35:04.642Z,14.50
2018-11-07T10:37:32.869Z,14.50
2018-11-07T10:40:00.919Z,14.60
2018-11-07T10:42:28.991Z,14.60
2018-11-07T10:44:57.091Z,14.70
2018-11-07T10:47:25.250Z,14.80
2018-11-07T10:49:53.281Z,14.90
2018-11-07T10:52:21.388Z,15.00
2018-11-07T10:54:49.456Z,15.00
2018-11-07T10:57:17.539Z,15.10
2018-11-07T10:59:45.630Z,15.20
2018-11-07T11:02:13.726Z,15.20
2018-11-07T11:04:41.864Z,15.30
2018-11-07T11:07:09.961Z,15.40
2018-11-07T11:09:38.037Z,15.60
2018-11-07T11:12:06.145Z,15.60
2018-11-07T11:14:34.218Z,15.80
2018-11-07T11:17:02.443Z,15.90
2018-11-07T11:22:10.029Z,16.00
2018-11-07T11:24:38.161Z,16.00
2018-11-07T11:27:06.206Z,16.00
2018-11-07T11:29:34.281Z,16.00
2018-11-07T11:32:02.443Z,16.00
2018-11-07T11:34:30.497Z,16.00
2018-11-07T11:36:58.486Z,16.00
2018-11-07T11:39:26.537Z,15.90
2018-11-07T11:41:54.632Z,15.90
2018-11-07T11:44:22.669Z,15.80
2018-11-07T11:46:50.756Z,15.70
2018-11-07T11:49:18.802Z,15.70
2018-11-07T11:51:46.850Z,15.80
2018-11-07T11:54:14.902Z,15.90
2018-11-07T11:56:43.151Z,16.00
2018-11-07T11:59:11.401Z,16.00
2018-11-07T12:01:39.429Z,16.10
2018-11-07T12:04:07.919Z,16.10
2018-11-07T12:06:36.037Z,16.10
2018-11-07T12:09:06.585Z,16.00
2018-11-07T12:11:34.604Z,16.00
2018-11-07T12:14:04.670Z,16.00
2018-11-07T12:16:32.826Z,15.90
2018-11-07T12:19:00.932Z,15.90
2018-11-07T12:21:29.202Z,16.00
2018-11-07T12:23:57.298Z,16.00
2018-11-07T12:26:25.349Z,16.00
2018-11-07T12:28:53.462Z,16.00
2018-11-07T12:31:21.512Z,16.00
2018-11-07T12:33:49.560Z,16.10
2018-11-07T12:36:19.249Z,16.10
2018-11-07T12:38:47.420Z,16.10
2018-11-07T12:41:15.695Z,16.10
2018-11-07T12:43:44.738Z,16.10
2018-11-07T12:46:12.912Z,16.20
2018-11-07T12:48:41.484Z,16.20
2018-11-07T12:51:09.527Z,16.30
2018-11-07T12:53:37.612Z,16.40
2018-11-07T12:56:06.123Z,16.40
2018-11-07T12:58:34.190Z,16.50
2018-11-07T13:01:02.233Z,16.60
2018-11-07T13:03:30.282Z,16.70
2018-11-07T13:05:58.319Z,16.70
2018-11-07T13:08:26.405Z,16.70
2018-11-07T13:10:54.854Z,16.70
2018-11-07T13:13:23.518Z,16.70
2018-11-07T13:15:51.591Z,16.60
2018-11-07T13:18:20.228Z,16.60
2018-11-07T13:20:48.816Z,16.50
2018-11-07T13:23:16.848Z,16.50
2018-11-07T13:25:44.901Z,16.40
2018-11-07T13:28:13.207Z,16.40
2018-11-07T13:30:41.261Z,16.40
2018-11-07T13:33:09.304Z,16.30
2018-11-07T13:35:37.357Z,16.30
2018-11-07T13:38:05.737Z,16.20
2018-11-07T13:40:33.506Z,16.20
2018-11-07T13:43:01.638Z,16.20
2018-11-07T13:45:29.734Z,16.10
2018-11-07T13:47:57.734Z,16.10
2018-11-07T13:50:25.841Z,16.00
2018-11-07T13:52:53.919Z,16.00
2018-11-07T13:55:22.455Z,16.00
2018-11-07T13:57:50.584Z,16.00
2018-11-07T14:00:18.655Z,16.00
2018-11-07T14:02:46.673Z,16.00
2018-11-07T14:05:14.821Z,16.10
2018-11-07T14:07:42.801Z,16.00
2018-11-07T14:10:12.041Z,16.00
2018-11-07T14:12:40.181Z,16.00
2018-11-07T14:15:09.071Z,16.00
2018-11-07T14:17:37.301Z,15.90
2018-11-07T14:20:05.927Z,15.90
2018-11-07T14:22:34.013Z,15.90
2018-11-07T14:25:02.232Z,15.90
2018-11-07T14:27:30.495Z,15.90
2018-11-07T14:29:58.672Z,15.80
2018-11-07T14:32:27.470Z,15.80
2018-11-07T14:34:55.519Z,15.80
2018-11-07T14:37:23.692Z,15.80
2018-11-07T14:39:51.765Z,15.80
2018-11-07T14:42:19.932Z,15.70
2018-11-07T14:44:48.524Z,15.70
2018-11-07T14:47:16.636Z,15.70
2018-11-07T14:49:45.206Z,15.70
2018-11-07T14:52:13.249Z,15.60
2018-11-07T14:54:41.313Z,15.70
2018-11-07T14:57:09.412Z,15.60
2018-11-07T14:59:37.466Z,15.50
2018-11-07T15:02:05.819Z,15.50
2018-11-07T15:04:33.919Z,15.50
2018-11-07T15:07:02.081Z,15.40
2018-11-07T15:09:30.154Z,15.40
2018-11-07T15:11:58.356Z,15.30
2018-11-07T15:14:26.334Z,15.20
2018-11-07T15:16:55.052Z,15.20
2018-11-07T15:19:23.140Z,15.10
2018-11-07T15:21:51.313Z,15.00
2018-11-07T15:24:19.438Z,14.90
2018-11-07T15:26:47.520Z,14.80
2018-11-07T15:29:15.811Z,14.80
2018-11-07T15:31:43.969Z,14.60
2018-11-07T15:34:12.033Z,14.50
2018-11-07T15:36:40.245Z,14.40
2018-11-07T15:39:08.399Z,14.40
2018-11-07T15:41:36.466Z,14.30
2018-11-07T15:44:04.583Z,14.20
2018-11-07T15:46:32.668Z,14.20
2018-11-07T15:49:00.730Z,14.10
2018-11-07T15:51:28.899Z,14.10
2018-11-07T15:53:57.034Z,14.10
2018-11-07T15:56:25.074Z,14.10
2018-11-07T15:58:53.203Z,14.00
2018-11-07T16:01:21.348Z,14.00
2018-11-07T16:03:49.506Z,14.00
2018-11-07T16:06:17.870Z,14.00
2018-11-07T16:08:46.226Z,14.10
2018-11-07T16:11:14.283Z,14.10
2018-11-07T16:13:42.419Z,14.10
2018-11-07T16:16:10.548Z,14.10
2018-11-07T16:18:38.622Z,14.10
2018-11-07T16:21:07.029Z,14.10
2018-11-07T16:23:35.105Z,14.10
2018-11-07T16:26:03.271Z,14.00
2018-11-07T16:28:31.639Z,14.00
2018-11-07T16:30:59.811Z,14.00
2018-11-07T16:33:28.002Z,13.90
2018-11-07T16:35:56.062Z,13.90
2018-11-07T16:38:24.178Z,13.80
2018-11-07T16:40:52.369Z,13.80
2018-11-07T16:43:20.359Z,13.80
2018-11-07T16:45:48.424Z,13.80
2018-11-07T16:48:16.474Z,13.80
2018-11-07T16:50:44.541Z,13.80
2018-11-07T16:53:12.699Z,13.80
2018-11-07T16:55:40.839Z,13.80
2018-11-07T16:58:08.879Z,13.80
2018-11-07T17:00:37.173Z,13.70
2018-11-07T17:03:05.330Z,13.70
2018-11-07T17:05:33.445Z,13.70
2018-11-07T17:08:01.565Z,13.70
2018-11-07T17:10:29.657Z,13.60
2018-11-07T17:12:57.731Z,13.60
2018-11-07T17:15:25.837Z,13.60
2018-11-07T17:17:53.890Z,13.60
2018-11-07T17:20:22.023Z,13.70
2018-11-07T17:22:50.202Z,13.70
2018-11-07T17:25:18.295Z,13.80
2018-11-07T17:27:46.382Z,13.80
2018-11-07T17:30:14.432Z,13.90
2018-11-07T17:32:42.550Z,14.00
2018-11-07T17:35:11.134Z,14.00
2018-11-07T17:37:39.322Z,14.00
2018-11-07T17:40:09.820Z,14.00
2018-11-07T17:42:37.911Z,14.00
2018-11-07T17:45:08.609Z,14.00
2018-11-07T17:47:36.864Z,14.00
2018-11-07T17:50:05.502Z,13.90
2018-11-07T17:52:33.852Z,13.90
2018-11-07T17:55:08.649Z,13.80
2018-11-07T17:57:36.829Z,13.80
2018-11-07T18:00:06.853Z,13.80
2018-11-07T18:02:35.179Z,13.70
2018-11-07T18:07:37.674Z,13.70
2018-11-07T18:10:07.542Z,13.70
2018-11-07T18:12:35.745Z,13.60
2018-11-07T18:15:04.255Z,13.60
2018-11-07T18:17:32.351Z,13.50
2018-11-07T18:20:00.389Z,13.50
2018-11-07T18:22:28.882Z,13.50
2018-11-07T18:24:57.057Z,13.50
2018-11-07T18:27:25.372Z,13.50
2018-11-07T18:29:53.414Z,13.50
2018-11-07T18:32:22.483Z,13.50
2018-11-07T18:34:50.644Z,13.50
2018-11-07T18:37:18.704Z,13.50
2018-11-07T18:39:46.841Z,13.40
2018-11-07T18:42:14.961Z,13.40
2018-11-07T18:44:43.190Z,13.40
2018-11-07T18:47:11.314Z,13.50
2018-11-07T18:49:39.382Z,13.40
2018-11-07T18:52:07.466Z,13.40
2018-11-07T18:54:35.575Z,13.50
2018-11-07T18:57:04.059Z,13.40
2018-11-07T18:59:32.152Z,13.50
2018-11-07T19:02:00.270Z,13.40
2018-11-07T19:04:28.389Z,13.50
2018-11-07T19:06:56.496Z,13.50
2018-11-07T19:09:24.561Z,13.50
2018-11-07T19:11:52.686Z,13.40
2018-11-07T19:14:20.789Z,13.40
2018-11-07T19:16:48.878Z,13.40
2018-11-07T19:19:16.973Z,13.40
2018-11-07T19:21:45.061Z,13.30
2018-11-07T19:24:13.216Z,13.30
2018-11-07T19:26:41.403Z,13.20
2018-11-07T19:29:09.442Z,13.20
2018-11-07T19:31:37.583Z,13.10
2018-11-07T19:34:05.738Z,13.20
2018-11-07T19:36:33.843Z,13.10
2018-11-07T19:39:01.953Z,13.10
2018-11-07T19:41:30.041Z,13.00
2018-11-07T19:43:58.171Z,13.00
2018-11-07T19:46:26.267Z,13.00
2018-11-07T19:48:54.418Z,13.00
2018-11-07T19:51:22.553Z,13.00
2018-11-07T19:53:50.767Z,13.00
2018-11-07T19:56:18.817Z,13.00
2018-11-07T19:58:47.005Z,13.00
2018-11-07T20:01:15.110Z,13.00
2018-11-07T20:03:43.180Z,12.90
2018-11-07T20:06:11.267Z,12.80
2018-11-07T20:08:39.374Z,12.80
2018-11-07T20:11:07.656Z,12.80
2018-11-07T20:13:35.781Z,12.70
2018-11-07T20:16:03.907Z,12.70
2018-11-07T20:18:32.008Z,12.70
2018-11-07T20:21:00.083Z,12.70
2018-11-07T20:23:28.181Z,12.70
2018-11-07T20:25:56.285Z,12.70
2018-11-07T20:28:24.400Z,12.70
2018-11-07T20:30:52.509Z,12.70
2018-11-07T20:33:20.651Z,12.70
2018-11-07T20:35:48.917Z,12.70
2018-11-07T20:38:16.864Z,12.70
2018-11-07T20:40:44.954Z,12.70
2018-11-07T20:43:13.228Z,12.70
2018-11-07T20:45:41.552Z,12.70
2018-11-07T20:48:09.575Z,12.70
2018-11-07T20:50:37.698Z,12.70
2018-11-07T20:53:05.766Z,12.70
2018-11-07T20:55:33.873Z,12.70
2018-11-07T20:58:02.625Z,12.60
2018-11-07T21:00:30.703Z,12.60
2018-11-07T21:02:58.784Z,12.60
2018-11-07T21:05:26.873Z,12.60
2018-11-07T21:07:54.960Z,12.60
2018-11-07T21:10:23.025Z,12.60
2018-11-07T21:12:51.148Z,12.60
2018-11-07T21:15:19.228Z,12.60
2018-11-07T21:17:47.422Z,12.60
2018-11-07T21:20:15.480Z,12.60
2018-11-07T21:22:43.549Z,12.60
2018-11-07T21:25:11.638Z,12.50
2018-11-07T21:27:39.747Z,12.50
2018-11-07T21:30:10.155Z,12.50
2018-11-07T21:32:38.259Z,12.50
2018-11-07T21:35:06.494Z,12.50
2018-11-07T21:37:34.505Z,12.50
2018-11-07T21:40:02.754Z,12.40
2018-11-07T21:42:30.875Z,12.40
2018-11-07T21:44:58.963Z,12.30
2018-11-07T21:47:27.084Z,12.30
2018-11-07T21:49:55.205Z,12.30
2018-11-07T21:52:23.385Z,12.30
2018-11-07T21:54:51.530Z,12.30
2018-11-07T21:57:19.526Z,12.20
2018-11-07T21:59:47.621Z,12.20
2018-11-07T22:02:15.689Z,12.20
2018-11-07T22:04:43.769Z,12.20
2018-11-07T22:07:11.833Z,12.10
2018-11-07T22:09:39.927Z,12.10
2018-11-07T22:12:08.019Z,12.10
2018-11-07T22:14:36.090Z,12.10
2018-11-07T22:17:04.213Z,12.00
2018-11-07T22:19:32.269Z,12.00
2018-11-07T22:22:00.316Z,12.00
2018-11-07T22:24:28.402Z,11.90
2018-11-07T22:26:56.491Z,11.90
2018-11-07T22:29:24.546Z,11.90
2018-11-07T22:31:52.664Z,11.90
2018-11-07T22:34:20.735Z,11.90
2018-11-07T22:36:48.802Z,11.90
2018-11-07T22:39:16.900Z,11.90
2018-11-07T22:41:45.046Z,11.90
2018-11-07T22:44:13.678Z,11.90
2018-11-07T22:46:41.864Z,11.90
2018-11-07T22:49:09.946Z,11.80
2018-11-07T22:51:38.021Z,11.80
2018-11-07T22:54:06.113Z,11.80
2018-11-07T22:56:34.175Z,11.80
2018-11-07T22:59:02.224Z,11.80
2018-11-07T23:01:30.352Z,11.80
2018-11-07T23:03:58.420Z,11.80
2018-11-07T23:06:26.528Z,11.70
2018-11-07T23:08:54.595Z,11.70
2018-11-07T23:11:22.693Z,11.70
2018-11-07T23:13:50.791Z,11.60
2018-11-07T23:16:18.868Z,11.60
2018-11-07T23:18:46.940Z,11.60
2018-11-07T23:21:15.034Z,11.60
2018-11-07T23:23:43.131Z,11.50
2018-11-07T23:26:11.238Z,11.50
2018-11-07T23:28:39.438Z,11.50
2018-11-07T23:31:07.481Z,11.50
2018-11-07T23:33:35.613Z,11.50
2018-11-07T23:36:03.770Z,11.40
2018-11-07T23:38:31.880Z,11.40
2018-11-07T23:40:59.889Z,11.40
2018-11-07T23:43:28.304Z,11.30
2018-11-07T23:45:56.362Z,11.30
2018-11-07T23:48:24.437Z,11.30
2018-11-07T23:50:52.856Z,11.30
2018-11-07T23:53:20.882Z,11.40
2018-11-07T23:55:48.969Z,11.40
2018-11-07T23:58:17.013Z,11.40
